Time;durP1;ratioP1;P1;durP2;ratioP2;P2;SDS_P1;SDS_P2;PMS_P1;PMS_P2;Temp;Humidity;BMP_temperature;BMP_pressure;BME280_temperature;BME280_humidity;BME280_pressure;Samples;Min_cycle;Max_cycle;Signal;HPM_P1;HPM_P2
2023/07/15 00:01:28;;;;;;;2.70;1.20;;;;;;;;;;108226;1265;40178;-42
2023/07/15 00:04:02;;;;;;;2.50;1.20;;;;;;;;;;108183;1258;38841;-39
2023/07/15 00:06:36;;;;;;;2.40;1.20;;;;;;;;;;108325;1260;40075;-39
2023/07/15 00:09:15;;;;;;;2.70;1.20;;;;;;;;;;108341;1264;41864;-40
2023/07/15 00:11:49;;;;;;;2.70;1.20;;;;;;;;;;108275;1273;41130;-40
2023/07/15 00:14:25;;;;;;;3.40;1.40;;;;;;;;;;108239;1258;38485;-40
2023/07/15 00:17:00;;;;;;;3.10;1.30;;;;;;;;;;108208;1272;39808;-40
2023/07/15 00:19:35;;;;;;;2.80;1.30;;;;;;;;;;108248;1261;40933;-39
2023/07/15 00:22:13;;;;;;;2.90;1.20;;;;;;;;;;108214;1258;40198;-40
2023/07/15 00:24:48;;;;;;;2.50;1.20;;;;;;;;;;108213;1256;38640;-41
2023/07/15 00:27:25;;;;;;;2.50;1.20;;;;;;;;;;108291;1268;40191;-40
2023/07/15 00:29:59;;;;;;;2.90;1.20;;;;;;;;;;108324;1269;40810;-40
2023/07/15 00:32:34;;;;;;;3.00;1.40;;;;;;;;;;108312;1261;39916;-40
2023/07/15 00:35:21;;;;;;;2.90;1.20;;;;;;;;;;108211;1260;38747;-41
2023/07/15 00:37:58;;;;;;;2.60;1.30;;;;;;;;;;108217;1256;40209;-40
2023/07/15 00:40:35;;;;;;;2.60;1.30;;;;;;;;;;108244;1270;41066;-41
2023/07/15 00:43:56;;;;;;;2.90;1.50;;;;;;;;;;108256;1270;40059;-40
2023/07/15 00:47:23;;;;;;;2.60;1.30;;;;;;;;;;108254;1260;44152;-40
2023/07/15 00:49:58;;;;;;;2.70;1.30;;;;;;;;;;108334;1269;41195;-39
2023/07/15 00:52:33;;;;;;;2.90;1.30;;;;;;;;;;108319;1269;41957;-39
2023/07/15 00:55:09;;;;;;;2.80;1.40;;;;;;;;;;108215;1257;41305;-40
2023/07/15 00:57:43;;;;;;;3.10;1.30;;;;;;;;;;108247;1267;39982;-39
2023/07/15 01:00:22;;;;;;;2.40;1.40;;;;;;;;;;108216;1257;41576;-39
2023/07/15 01:02:56;;;;;;;3.00;1.30;;;;;;;;;;108244;1264;42051;-39
2023/07/15 01:05:32;;;;;;;3.00;1.40;;;;;;;;;;108207;1260;39975;-41
2023/07/15 01:08:08;;;;;;;3.00;1.30;;;;;;;;;;108307;1270;40021;-40
2023/07/15 01:10:43;;;;;;;3.10;1.40;;;;;;;;;;108331;1260;39746;-40
2023/07/15 01:13:17;;;;;;;3.00;1.30;;;;;;;;;;108266;1272;40966;-39
2023/07/15 01:15:53;;;;;;;3.10;1.40;;;;;;;;;;108253;1261;39850;-40
2023/07/15 01:18:29;;;;;;;2.90;1.40;;;;;;;;;;108196;1270;39000;-40
2023/07/15 01:21:04;;;;;;;2.80;1.20;;;;;;;;;;108249;1270;40119;-39
2023/07/15 01:23:38;;;;;;;3.00;1.40;;;;;;;;;;108216;1271;40704;-40
2023/07/15 01:26:13;;;;;;;2.90;1.40;;;;;;;;;;108237;1257;40005;-41
2023/07/15 01:28:48;;;;;;;3.00;1.50;;;;;;;;;;108351;1272;38808;-40
2023/07/15 01:31:22;;;;;;;2.90;1.40;;;;;;;;;;108282;1270;40341;-40
2023/07/15 01:33:56;;;;;;;3.70;1.60;;;;;;;;;;108296;1269;40855;-42
2023/07/15 01:36:31;;;;;;;3.00;1.50;;;;;;;;;;108111;1272;42004;-41
2023/07/15 01:39:09;;;;;;;3.70;1.60;;;;;;;;;;108190;1261;38811;-41
2023/07/15 01:41:44;;;;;;;3.20;1.50;;;;;;;;;;108221;1269;39925;-41
2023/07/15 01:44:18;;;;;;;3.00;1.40;;;;;;;;;;108177;1272;41180;-40
2023/07/15 01:46:52;;;;;;;3.20;1.40;;;;;;;;;;108174;1260;39905;-40
2023/07/15 01:49:27;;;;;;;3.40;1.60;;;;;;;;;;108155;1272;38839;-40
2023/07/15 01:52:02;;;;;;;2.90;1.40;;;;;;;;;;108210;1270;41368;-40
2023/07/15 01:54:36;;;;;;;3.00;1.50;;;;;;;;;;108212;1261;40756;-41
2023/07/15 01:57:14;;;;;;;3.50;1.50;;;;;;;;;;108200;1260;39951;-41
2023/07/15 01:59:48;;;;;;;3.60;1.50;;;;;;;;;;108292;1269;38682;-43
2023/07/15 02:02:23;;;;;;;3.00;1.60;;;;;;;;;;108270;1264;40053;-40
2023/07/15 02:04:57;;;;;;;2.80;1.50;;;;;;;;;;108304;1269;40905;-42
2023/07/15 02:07:32;;;;;;;3.20;1.50;;;;;;;;;;108179;1259;40467;-43
2023/07/15 02:10:08;;;;;;;3.60;1.60;;;;;;;;;;108183;1272;38814;-39
2023/07/15 02:12:45;;;;;;;3.70;1.50;;;;;;;;;;108254;1272;39907;-41
2023/07/15 02:15:22;;;;;;;3.40;1.70;;;;;;;;;;108188;1260;40742;-39
2023/07/15 02:17:56;;;;;;;3.60;1.50;;;;;;;;;;108264;1260;39641;-39
2023/07/15 02:20:30;;;;;;;3.80;1.60;;;;;;;;;;108329;1269;38626;-40
2023/07/15 02:23:04;;;;;;;3.20;1.70;;;;;;;;;;108309;1269;40220;-41
2023/07/15 02:25:39;;;;;;;3.20;1.50;;;;;;;;;;108319;1269;41507;-44
2023/07/15 02:28:14;;;;;;;2.80;1.40;;;;;;;;;;108169;1258;39949;-41
2023/07/15 02:30:48;;;;;;;3.80;1.60;;;;;;;;;;108207;1269;40050;-40
2023/07/15 02:33:23;;;;;;;3.30;1.60;;;;;;;;;;108190;1256;40026;-41
2023/07/15 02:35:58;;;;;;;3.50;1.60;;;;;;;;;;108190;1258;41034;-39
2023/07/15 02:38:32;;;;;;;3.50;1.60;;;;;;;;;;108256;1260;41156;-40
2023/07/15 02:41:06;;;;;;;3.60;1.70;;;;;;;;;;108301;1263;38894;-41
2023/07/15 02:43:40;;;;;;;3.20;1.60;;;;;;;;;;107659;1269;893808;-38
2023/07/15 02:46:15;;;;;;;3.70;2.10;;;;;;;;;;108298;1269;40952;-42
2023/07/15 02:48:49;;;;;;;3.90;1.90;;;;;;;;;;108138;1260;40042;-39
2023/07/15 02:51:24;;;;;;;3.70;1.60;;;;;;;;;;108095;1268;175453;-41
2023/07/15 02:54:01;;;;;;;3.50;1.90;;;;;;;;;;108193;1262;40197;-40
2023/07/15 02:56:38;;;;;;;3.30;1.60;;;;;;;;;;108195;1257;40984;-41
2023/07/15 02:59:12;;;;;;;3.40;1.60;;;;;;;;;;108253;1256;47670;-40
2023/07/15 03:01:46;;;;;;;3.10;1.60;;;;;;;;;;108303;1269;38695;-40
2023/07/15 03:04:21;;;;;;;3.10;1.60;;;;;;;;;;108310;1257;40136;-38
2023/07/15 03:06:56;;;;;;;3.60;1.70;;;;;;;;;;108290;1260;41923;-41
2023/07/15 03:09:31;;;;;;;3.40;1.70;;;;;;;;;;108138;1260;44896;-40
2023/07/15 03:12:07;;;;;;;3.20;1.80;;;;;;;;;;108210;1268;38811;-40
2023/07/15 03:14:42;;;;;;;3.40;1.60;;;;;;;;;;108192;1261;39929;-41
2023/07/15 03:17:16;;;;;;;4.20;1.70;;;;;;;;;;108208;1260;40887;-40
2023/07/15 03:19:50;;;;;;;3.70;1.70;;;;;;;;;;108153;1260;45846;-41
2023/07/15 03:22:24;;;;;;;4.00;1.80;;;;;;;;;;108193;1257;38646;-40
2023/07/15 03:24:58;;;;;;;3.50;1.90;;;;;;;;;;108189;1270;40381;-42
2023/07/15 03:27:33;;;;;;;3.90;1.70;;;;;;;;;;108201;1260;41954;-43
2023/07/15 03:30:09;;;;;;;4.20;1.80;;;;;;;;;;108202;1260;45625;-41
2023/07/15 03:32:44;;;;;;;3.60;1.70;;;;;;;;;;108359;1264;39755;-40
2023/07/15 03:35:19;;;;;;;3.70;1.80;;;;;;;;;;108290;1269;40264;-40
2023/07/15 03:37:56;;;;;;;3.60;1.70;;;;;;;;;;108281;1269;40831;-40
2023/07/15 03:40:31;;;;;;;3.50;1.80;;;;;;;;;;108285;1260;45778;-40
2023/07/15 03:43:05;;;;;;;3.40;1.70;;;;;;;;;;108179;1272;39915;-40
2023/07/15 03:45:39;;;;;;;3.50;1.90;;;;;;;;;;108212;1270;40251;-39
2023/07/15 03:48:13;;;;;;;3.60;1.80;;;;;;;;;;108217;1270;40832;-39
2023/07/15 03:50:49;;;;;;;4.00;2.10;;;;;;;;;;108162;1261;45441;-40
2023/07/15 03:53:26;;;;;;;3.20;1.80;;;;;;;;;;108234;1270;38698;-41
2023/07/15 03:56:01;;;;;;;3.60;1.90;;;;;;;;;;108235;1270;39887;-41
2023/07/15 03:58:35;;;;;;;4.20;2.00;;;;;;;;;;108175;1268;42073;-40
2023/07/15 04:01:09;;;;;;;3.70;1.90;;;;;;;;;;108283;1261;39785;-40
2023/07/15 04:03:43;;;;;;;3.40;1.80;;;;;;;;;;108304;1269;39875;-40
2023/07/15 04:06:18;;;;;;;4.20;2.00;;;;;;;;;;108338;1269;41304;-39
2023/07/15 04:08:52;;;;;;;4.10;2.00;;;;;;;;;;108270;1262;40771;-39
2023/07/15 04:11:27;;;;;;;3.60;1.80;;;;;;;;;;108232;1261;46263;-40
2023/07/15 04:14:01;;;;;;;4.20;2.00;;;;;;;;;;108104;1268;175492;-40
2023/07/15 04:16:36;;;;;;;3.70;1.90;;;;;;;;;;108255;1268;40190;-41
2023/07/15 04:19:10;;;;;;;4.40;1.90;;;;;;;;;;108192;1258;41559;-40
2023/07/15 04:21:45;;;;;;;4.10;2.00;;;;;;;;;;108327;1272;46499;-40
2023/07/15 04:24:19;;;;;;;3.80;1.90;;;;;;;;;;108306;1272;38542;-40
2023/07/15 04:26:54;;;;;;;4.10;2.00;;;;;;;;;;108292;1273;40056;-40
2023/07/15 04:29:30;;;;;;;4.10;2.10;;;;;;;;;;108136;1260;175459;-39
2023/07/15 04:32:05;;;;;;;3.70;2.00;;;;;;;;;;108219;1270;45889;-41
2023/07/15 04:34:39;;;;;;;4.00;1.80;;;;;;;;;;108252;1265;38871;-41
2023/07/15 04:37:13;;;;;;;3.80;1.80;;;;;;;;;;108210;1261;39986;-40
2023/07/15 04:39:47;;;;;;;4.50;2.00;;;;;;;;;;108176;1272;40675;-40
2023/07/15 04:42:22;;;;;;;4.30;1.90;;;;;;;;;;108297;1257;46323;-39
2023/07/15 04:44:59;;;;;;;4.00;2.00;;;;;;;;;;108283;1270;38680;-39
2023/07/15 04:47:33;;;;;;;3.50;1.90;;;;;;;;;;108304;1260;40359;-42
2023/07/15 04:50:13;;;;;;;3.60;2.10;;;;;;;;;;108272;1260;40437;-43
2023/07/15 04:52:47;;;;;;;3.90;2.10;;;;;;;;;;108189;1269;48159;-43
2023/07/15 04:55:24;;;;;;;4.10;2.20;;;;;;;;;;108258;1260;39878;-43
2023/07/15 04:57:59;;;;;;;4.40;2.30;;;;;;;;;;108230;1265;40042;-42
2023/07/15 05:00:33;;;;;;;5.30;2.60;;;;;;;;;;108054;1257;175523;-43
2023/07/15 05:03:08;;;;;;;4.70;2.80;;;;;;;;;;108319;1269;48285;-43
2023/07/15 05:05:44;;;;;;;4.40;2.80;;;;;;;;;;108278;1260;38888;-43
2023/07/15 05:08:22;;;;;;;4.40;2.40;;;;;;;;;;108350;1269;39991;-42
2023/07/15 05:10:58;;;;;;;4.50;2.70;;;;;;;;;;108319;1257;40967;-42
2023/07/15 05:13:32;;;;;;;5.20;3.10;;;;;;;;;;108261;1268;39935;-43
2023/07/15 05:16:07;;;;;;;5.00;2.70;;;;;;;;;;108259;1272;38562;-42
2023/07/15 05:18:42;;;;;;;4.60;2.80;;;;;;;;;;108215;1271;39949;-44
2023/07/15 05:21:18;;;;;;;5.00;2.80;;;;;;;;;;108185;1256;42084;-44
2023/07/15 05:23:53;;;;;;;4.60;2.80;;;;;;;;;;108302;1266;40005;-42
2023/07/15 05:26:27;;;;;;;4.60;2.80;;;;;;;;;;108327;1257;38955;-43
2023/07/15 05:29:02;;;;;;;5.00;2.80;;;;;;;;;;108344;1257;40032;-41
2023/07/15 05:31:37;;;;;;;5.00;2.80;;;;;;;;;;108329;1258;40733;-42
2023/07/15 05:34:11;;;;;;;4.80;2.70;;;;;;;;;;108274;1268;41164;-41
2023/07/15 05:36:46;;;;;;;5.30;3.10;;;;;;;;;;108289;1268;40009;-42
2023/07/15 05:39:20;;;;;;;4.40;2.70;;;;;;;;;;108283;1260;40163;-44
2023/07/15 05:41:59;;;;;;;5.10;2.90;;;;;;;;;;108241;1257;42107;-43
2023/07/15 05:44:33;;;;;;;4.80;2.90;;;;;;;;;;108371;1270;39910;-46
2023/07/15 05:47:08;;;;;;;4.80;2.90;;;;;;;;;;108358;1257;38801;-42
2023/07/15 05:49:43;;;;;;;4.80;2.80;;;;;;;;;;108367;1268;41360;-43
2023/07/15 05:52:17;;;;;;;4.80;2.70;;;;;;;;;;108267;1256;40874;-42
2023/07/15 05:54:51;;;;;;;5.50;2.90;;;;;;;;;;108307;1270;39877;-43
2023/07/15 05:57:29;;;;;;;4.90;2.90;;;;;;;;;;108259;1258;38818;-42
2023/07/15 06:00:08;;;;;;;4.50;2.80;;;;;;;;;;108225;1261;40074;-42
2023/07/15 06:02:42;;;;;;;4.50;2.80;;;;;;;;;;108232;1263;42164;-39
2023/07/15 06:05:17;;;;;;;5.30;3.10;;;;;;;;;;108291;1273;40410;-39
2023/07/15 06:07:53;;;;;;;5.00;2.80;;;;;;;;;;108330;1266;39973;-40
2023/07/15 06:10:27;;;;;;;4.40;2.70;;;;;;;;;;108312;1271;39812;-40
2023/07/15 06:13:02;;;;;;;4.30;2.70;;;;;;;;;;108248;1257;40545;-41
2023/07/15 06:15:38;;;;;;;4.70;2.80;;;;;;;;;;108203;1260;39734;-40
2023/07/15 06:18:13;;;;;;;4.90;2.60;;;;;;;;;;108206;1272;38680;-40
2023/07/15 06:20:50;;;;;;;4.40;3.00;;;;;;;;;;108203;1272;39728;-39
2023/07/15 06:23:24;;;;;;;4.90;2.80;;;;;;;;;;108196;1261;40734;-41
2023/07/15 06:25:59;;;;;;;4.40;2.70;;;;;;;;;;108317;1272;39792;-42
2023/07/15 06:28:37;;;;;;;5.30;2.80;;;;;;;;;;108312;1272;38820;-41
2023/07/15 06:31:12;;;;;;;5.20;2.90;;;;;;;;;;108308;1269;39896;-41
2023/07/15 06:33:49;;;;;;;5.20;2.80;;;;;;;;;;108259;1260;42055;-41
2023/07/15 06:36:24;;;;;;;4.80;2.90;;;;;;;;;;108253;1262;40805;-42
2023/07/15 06:39:02;;;;;;;4.40;2.90;;;;;;;;;;108245;1262;39946;-42
2023/07/15 06:41:36;;;;;;;4.70;2.90;;;;;;;;;;108233;1260;41295;-42
2023/07/15 06:44:11;;;;;;;4.50;2.70;;;;;;;;;;108223;1260;42185;-43
2023/07/15 06:46:46;;;;;;;4.60;2.80;;;;;;;;;;108264;1269;40348;-43
2023/07/15 06:49:20;;;;;;;4.50;2.80;;;;;;;;;;108285;1257;38832;-41
2023/07/15 06:51:56;;;;;;;4.70;2.80;;;;;;;;;;108323;1271;40193;-43
2023/07/15 06:54:31;;;;;;;4.80;2.80;;;;;;;;;;108194;1260;40984;-43
2023/07/15 06:57:08;;;;;;;4.90;2.90;;;;;;;;;;108230;1260;40079;-43
2023/07/15 06:59:42;;;;;;;5.50;3.00;;;;;;;;;;107639;1260;893679;-42
2023/07/15 07:02:16;;;;;;;4.00;2.50;;;;;;;;;;108256;1261;40218;-43
2023/07/15 07:04:51;;;;;;;4.50;2.80;;;;;;;;;;108210;1260;40955;-43
2023/07/15 07:07:26;;;;;;;5.00;2.80;;;;;;;;;;108300;1268;39681;-43
2023/07/15 07:10:00;;;;;;;4.70;2.60;;;;;;;;;;108312;1266;38883;-43
2023/07/15 07:12:34;;;;;;;4.40;2.80;;;;;;;;;;108293;1260;41137;-42
2023/07/15 07:15:11;;;;;;;4.40;2.60;;;;;;;;;;108216;1260;40922;-40
2023/07/15 07:17:45;;;;;;;5.00;2.80;;;;;;;;;;108283;1256;39957;-40
2023/07/15 07:20:22;;;;;;;4.70;3.00;;;;;;;;;;108259;1268;38936;-40
2023/07/15 07:22:56;;;;;;;4.00;2.60;;;;;;;;;;108273;1261;41141;-40
2023/07/15 07:25:30;;;;;;;4.20;2.60;;;;;;;;;;108253;1260;43735;-39
2023/07/15 07:28:09;;;;;;;4.80;2.80;;;;;;;;;;108271;1259;40738;-40
2023/07/15 07:30:44;;;;;;;4.80;2.70;;;;;;;;;;108271;1264;38622;-41
2023/07/15 07:33:20;;;;;;;4.70;2.90;;;;;;;;;;108283;1257;40206;-41
2023/07/15 07:35:54;;;;;;;4.30;2.80;;;;;;;;;;108179;1260;42010;-40
2023/07/15 07:38:28;;;;;;;4.50;2.70;;;;;;;;;;108217;1260;41039;-41
2023/07/15 07:41:09;;;;;;;4.60;2.60;;;;;;;;;;108223;1261;38951;-41
2023/07/15 07:43:44;;;;;;;4.30;2.80;;;;;;;;;;108252;1259;40211;-42
2023/07/15 07:46:19;;;;;;;4.30;2.80;;;;;;;;;;108360;1260;41938;-42
2023/07/15 07:48:54;;;;;;;5.20;2.80;;;;;;;;;;108314;1273;41474;-43
2023/07/15 07:51:28;;;;;;;4.70;2.50;;;;;;;;;;108373;1261;38953;-41
2023/07/15 07:54:05;;;;;;;4.40;2.80;;;;;;;;;;108332;1257;40169;-46
2023/07/15 07:56:39;;;;;;;4.70;2.90;;;;;;;;;;108324;1271;48586;-42
2023/07/15 07:59:13;;;;;;;4.40;2.80;;;;;;;;;;108343;1272;42127;-42
2023/07/15 08:01:48;;;;;;;4.60;2.60;;;;;;;;;;108307;1268;38773;-42
2023/07/15 08:04:24;;;;;;;4.10;2.70;;;;;;;;;;108247;1261;39930;-42
2023/07/15 08:06:59;;;;;;;4.40;2.60;;;;;;;;;;108345;1272;48042;-44
2023/07/15 08:09:33;;;;;;;4.20;2.50;;;;;;;;;;108406;1273;40710;-42
2023/07/15 08:12:09;;;;;;;4.50;2.70;;;;;;;;;;108339;1260;38743;-42
2023/07/15 08:14:43;;;;;;;4.20;2.60;;;;;;;;;;108286;1272;40163;-44
2023/07/15 08:17:17;;;;;;;4.30;2.70;;;;;;;;;;108336;1268;47790;-45
2023/07/15 08:19:52;;;;;;;4.20;2.70;;;;;;;;;;108311;1260;40695;-47
2023/07/15 08:22:26;;;;;;;5.10;2.80;;;;;;;;;;108303;1257;38746;-42
2023/07/15 08:25:01;;;;;;;4.20;2.50;;;;;;;;;;108233;1270;40299;-42
2023/07/15 08:27:35;;;;;;;4.30;2.50;;;;;;;;;;108251;1272;50029;-42
2023/07/15 08:30:13;;;;;;;4.70;2.90;;;;;;;;;;108256;1264;40938;-41
2023/07/15 08:32:47;;;;;;;4.60;2.90;;;;;;;;;;108311;1269;39054;-41
2023/07/15 08:35:22;;;;;;;4.90;2.80;;;;;;;;;;108207;1272;40421;-39
2023/07/15 08:37:58;;;;;;;4.40;2.80;;;;;;;;;;108274;1272;47849;-41
2023/07/15 08:40:32;;;;;;;4.20;2.70;;;;;;;;;;108215;1270;41853;-39
2023/07/15 08:43:06;;;;;;;4.60;2.80;;;;;;;;;;108249;1262;38969;-40
2023/07/15 08:45:40;;;;;;;4.70;2.70;;;;;;;;;;108231;1257;41162;-40
2023/07/15 08:48:14;;;;;;;4.80;2.60;;;;;;;;;;108265;1261;49033;-41
2023/07/15 08:50:49;;;;;;;4.10;2.70;;;;;;;;;;108121;1258;174988;-40
2023/07/15 08:53:29;;;;;;;4.40;2.60;;;;;;;;;;108277;1261;38738;-40
2023/07/15 08:56:04;;;;;;;4.50;2.60;;;;;;;;;;108231;1257;41641;-40
2023/07/15 08:58:39;;;;;;;4.90;2.80;;;;;;;;;;108173;1256;195489;-40
2023/07/15 09:01:13;;;;;;;5.00;2.90;;;;;;;;;;108268;1266;42111;-41
2023/07/15 09:03:48;;;;;;;4.20;2.80;;;;;;;;;;108269;1272;39946;-41
2023/07/15 09:06:23;;;;;;;4.60;2.80;;;;;;;;;;108252;1258;40287;-40
2023/07/15 09:08:57;;;;;;;4.60;2.80;;;;;;;;;;108262;1272;41454;-43
2023/07/15 09:11:42;;;;;;;5.00;2.70;;;;;;;;;;108276;1260;41896;-41
2023/07/15 09:14:20;;;;;;;5.50;2.80;;;;;;;;;;108277;1272;38639;-41
2023/07/15 09:16:59;;;;;;;4.70;2.80;;;;;;;;;;108239;1257;40149;-41
2023/07/15 09:19:37;;;;;;;4.60;2.90;;;;;;;;;;108279;1263;41806;-41
2023/07/15 09:22:12;;;;;;;4.40;2.80;;;;;;;;;;108296;1269;40938;-42
2023/07/15 09:24:46;;;;;;;4.30;2.70;;;;;;;;;;108246;1268;38751;-42
2023/07/15 09:27:20;;;;;;;5.20;3.00;;;;;;;;;;108218;1255;41445;-39
2023/07/15 09:29:54;;;;;;;4.30;3.00;;;;;;;;;;108277;1269;42228;-40
2023/07/15 09:32:28;;;;;;;4.80;3.00;;;;;;;;;;108194;1260;41007;-40
2023/07/15 09:35:03;;;;;;;4.40;2.90;;;;;;;;;;108273;1270;39037;-40
2023/07/15 09:37:38;;;;;;;4.40;2.90;;;;;;;;;;108108;1260;193179;-40
2023/07/15 09:40:14;;;;;;;4.40;2.80;;;;;;;;;;108264;1262;41859;-40
2023/07/15 09:42:55;;;;;;;4.00;2.70;;;;;;;;;;108261;1272;42200;-40
2023/07/15 09:45:40;;;;;;;4.10;2.80;;;;;;;;;;108300;1261;38930;-41
2023/07/15 09:48:16;;;;;;;4.30;2.60;;;;;;;;;;108208;1262;40115;-42
2023/07/15 09:50:50;;;;;;;4.30;2.70;;;;;;;;;;108275;1268;41844;-42
2023/07/15 09:53:24;;;;;;;4.20;2.60;;;;;;;;;;108230;1268;42245;-40
2023/07/15 09:55:59;;;;;;;4.30;2.80;;;;;;;;;;108271;1264;39860;-42
2023/07/15 09:58:35;;;;;;;4.00;2.70;;;;;;;;;;108224;1261;40026;-40
2023/07/15 10:01:19;;;;;;;4.40;2.90;;;;;;;;;;108161;1269;175424;-39
2023/07/15 10:04:06;;;;;;;4.20;2.80;;;;;;;;;;108243;1272;40682;-41
2023/07/15 10:06:41;;;;;;;4.10;2.60;;;;;;;;;;108280;1272;38592;-41
2023/07/15 10:09:17;;;;;;;4.50;2.90;;;;;;;;;;108288;1262;40269;-40
2023/07/15 10:11:53;;;;;;;4.90;2.90;;;;;;;;;;108297;1261;42022;-40
2023/07/15 10:14:30;;;;;;;4.20;2.70;;;;;;;;;;108289;1272;40930;-41
2023/07/15 10:17:16;;;;;;;4.40;2.70;;;;;;;;;;108264;1272;38951;-42
2023/07/15 10:19:52;;;;;;;4.30;2.70;;;;;;;;;;108254;1257;40223;-41
2023/07/15 10:22:35;;;;;;;4.20;2.60;;;;;;;;;;108267;1271;41959;-41
2023/07/15 10:25:13;;;;;;;4.20;2.80;;;;;;;;;;108255;1269;41122;-40
2023/07/15 10:27:47;;;;;;;4.40;2.80;;;;;;;;;;108263;1271;38674;-40
2023/07/15 10:30:27;;;;;;;4.60;2.90;;;;;;;;;;108281;1262;47208;-40
2023/07/15 10:33:26;;;;;;;4.30;2.80;;;;;;;;;;108279;1259;42048;-40
2023/07/15 10:36:01;;;;;;;5.10;3.50;;;;;;;;;;108061;1270;40804;-42
2023/07/15 10:38:36;;;;;;;5.20;3.00;;;;;;;;;;108036;1259;38587;-41
2023/07/15 10:41:15;;;;;;;4.70;2.90;;;;;;;;;;108131;1262;41567;-41
2023/07/15 10:43:49;;;;;;;4.20;3.00;;;;;;;;;;108130;1262;43117;-39
2023/07/15 10:46:23;;;;;;;4.50;2.90;;;;;;;;;;108118;1272;40665;-41
2023/07/15 10:48:58;;;;;;;4.80;3.40;;;;;;;;;;107899;1262;175401;-40
2023/07/15 10:51:34;;;;;;;4.50;3.10;;;;;;;;;;108014;1270;40085;-40
2023/07/15 10:54:11;;;;;;;4.90;3.30;;;;;;;;;;108073;1259;41618;-41
2023/07/15 10:56:46;;;;;;;4.50;3.20;;;;;;;;;;108060;1264;40851;-42
2023/07/15 10:59:21;;;;;;;4.40;3.00;;;;;;;;;;108074;1262;38770;-41
2023/07/15 11:01:55;;;;;;;4.90;3.30;;;;;;;;;;108117;1273;39934;-40
2023/07/15 11:04:33;;;;;;;4.50;3.30;;;;;;;;;;108115;1273;41882;-39
2023/07/15 11:07:09;;;;;;;5.40;3.40;;;;;;;;;;107987;1267;175436;-41
2023/07/15 11:09:45;;;;;;;4.60;3.40;;;;;;;;;;108004;1269;38779;-41
2023/07/15 11:12:19;;;;;;;4.70;3.50;;;;;;;;;;108085;1269;40749;-40
2023/07/15 11:14:56;;;;;;;5.20;3.60;;;;;;;;;;108099;1274;43457;-41
2023/07/15 11:17:30;;;;;;;5.60;3.70;;;;;;;;;;108069;1264;41017;-40
2023/07/15 11:20:11;;;;;;;4.40;3.20;;;;;;;;;;108060;1262;38879;-40
2023/07/15 11:22:48;;;;;;;4.90;3.20;;;;;;;;;;107969;1274;175376;-40
2023/07/15 11:25:25;;;;;;;5.50;3.30;;;;;;;;;;108109;1268;41733;-41
2023/07/15 11:28:02;;;;;;;4.40;3.20;;;;;;;;;;108083;1274;41023;-41
2023/07/15 11:30:42;;;;;;;4.80;3.50;;;;;;;;;;108126;1263;39135;-42
2023/07/15 11:33:17;;;;;;;4.90;3.30;;;;;;;;;;108104;1263;40710;-42
2023/07/15 11:35:52;;;;;;;4.50;3.20;;;;;;;;;;108079;1264;41538;-45
2023/07/15 11:38:36;;;;;;;4.80;3.40;;;;;;;;;;108079;1259;40910;-43
2023/07/15 11:41:10;;;;;;;4.90;3.30;;;;;;;;;;108103;1271;38754;-41
2023/07/15 11:43:44;;;;;;;4.80;3.40;;;;;;;;;;108129;1271;40113;-42
2023/07/15 11:46:22;;;;;;;4.50;3.10;;;;;;;;;;108160;1269;41601;-42
2023/07/15 11:48:59;;;;;;;4.60;3.10;;;;;;;;;;108031;1262;149553;-42
2023/07/15 11:51:35;;;;;;;4.90;3.10;;;;;;;;;;108074;1263;40112;-42
2023/07/15 11:54:15;;;;;;;4.20;3.20;;;;;;;;;;108101;1273;41729;-42
2023/07/15 11:56:52;;;;;;;4.40;3.00;;;;;;;;;;108164;1270;41711;-43
2023/07/15 11:59:31;;;;;;;4.30;3.10;;;;;;;;;;108113;1258;42162;-42
2023/07/15 12:02:07;;;;;;;4.30;3.20;;;;;;;;;;108139;1262;44479;-42
2023/07/15 12:04:45;;;;;;;4.00;2.80;;;;;;;;;;108221;1270;40401;-42
2023/07/15 12:07:23;;;;;;;4.00;2.90;;;;;;;;;;108186;1262;43521;-43
2023/07/15 12:10:14;;;;;;;4.00;3.00;;;;;;;;;;108200;1271;40888;-43
2023/07/15 12:12:49;;;;;;;4.40;3.00;;;;;;;;;;108124;1271;46327;-43
2023/07/15 12:15:24;;;;;;;4.40;3.00;;;;;;;;;;108099;1258;39887;-43
2023/07/15 12:17:58;;;;;;;4.40;3.10;;;;;;;;;;108087;1274;43203;-42
2023/07/15 12:20:33;;;;;;;5.10;3.10;;;;;;;;;;108006;1270;42504;-42
2023/07/15 12:23:08;;;;;;;4.30;2.90;;;;;;;;;;108135;1272;45157;-40
2023/07/15 12:25:42;;;;;;;4.50;2.90;;;;;;;;;;108132;1260;40230;-41
2023/07/15 12:28:17;;;;;;;4.00;2.90;;;;;;;;;;108110;1269;41664;-42
2023/07/15 12:30:51;;;;;;;3.70;2.70;;;;;;;;;;108108;1262;40980;-41
2023/07/15 12:33:28;;;;;;;4.20;2.90;;;;;;;;;;108045;1271;44983;-41
2023/07/15 12:36:05;;;;;;;3.90;2.70;;;;;;;;;;108297;1268;41055;-41
2023/07/15 12:38:40;;;;;;;3.90;2.60;;;;;;;;;;108105;1259;41770;-41
2023/07/15 12:41:16;;;;;;;4.20;2.80;;;;;;;;;;108238;1256;41190;-41
2023/07/15 12:43:50;;;;;;;4.00;2.80;;;;;;;;;;108275;1263;39127;-41
2023/07/15 12:46:25;;;;;;;4.20;2.90;;;;;;;;;;108289;1272;40512;-41
2023/07/15 12:49:00;;;;;;;3.70;2.70;;;;;;;;;;108240;1257;41893;-42
2023/07/15 12:51:35;;;;;;;4.20;2.80;;;;;;;;;;108286;1256;40998;-41
2023/07/15 12:54:09;;;;;;;4.40;2.90;;;;;;;;;;108250;1272;38973;-42
2023/07/15 12:56:43;;;;;;;4.00;2.60;;;;;;;;;;108258;1268;40118;-41
2023/07/15 12:59:18;;;;;;;3.90;2.60;;;;;;;;;;108245;1265;41834;-40
2023/07/15 13:01:53;;;;;;;3.90;2.50;;;;;;;;;;108239;1257;40890;-44
2023/07/15 13:04:27;;;;;;;4.10;2.80;;;;;;;;;;108267;1269;38832;-41
2023/07/15 13:07:02;;;;;;;4.80;2.70;;;;;;;;;;108274;1272;39908;-41
2023/07/15 13:09:36;;;;;;;4.10;2.50;;;;;;;;;;108127;1269;175360;-43
2023/07/15 13:12:14;;;;;;;4.00;2.50;;;;;;;;;;108247;1265;41193;-41
2023/07/15 13:14:50;;;;;;;4.50;2.60;;;;;;;;;;108298;1265;39167;-41
2023/07/15 13:17:25;;;;;;;4.00;2.40;;;;;;;;;;108264;1272;40382;-41
2023/07/15 13:20:00;;;;;;;4.20;2.50;;;;;;;;;;108275;1272;42045;-42
2023/07/15 13:22:34;;;;;;;4.30;2.60;;;;;;;;;;108244;1257;41100;-42
2023/07/15 13:25:10;;;;;;;3.70;2.50;;;;;;;;;;108294;1272;38592;-41
2023/07/15 13:27:44;;;;;;;4.00;2.40;;;;;;;;;;108254;1266;40327;-41
2023/07/15 13:30:19;;;;;;;4.20;2.50;;;;;;;;;;108294;1262;41683;-42
2023/07/15 13:32:54;;;;;;;4.30;2.60;;;;;;;;;;108228;1257;40776;-43
2023/07/15 13:35:30;;;;;;;3.60;2.40;;;;;;;;;;108277;1272;40033;-42
2023/07/15 13:38:04;;;;;;;4.00;2.50;;;;;;;;;;108245;1268;40154;-41
2023/07/15 13:40:38;;;;;;;4.20;2.60;;;;;;;;;;108277;1272;43043;-46
2023/07/15 13:43:12;;;;;;;4.60;2.50;;;;;;;;;;108240;1262;42146;-41
2023/07/15 13:45:47;;;;;;;3.70;2.30;;;;;;;;;;108283;1273;40098;-41
2023/07/15 13:48:21;;;;;;;4.30;2.50;;;;;;;;;;108258;1266;40542;-42
2023/07/15 13:50:56;;;;;;;3.80;2.40;;;;;;;;;;108292;1269;42114;-42
2023/07/15 13:53:29;;;;;;;4.00;2.40;;;;;;;;;;108222;1260;42243;-42
2023/07/15 13:56:05;;;;;;;4.00;2.40;;;;;;;;;;108223;1262;40015;-42
2023/07/15 13:58:39;;;;;;;3.70;2.40;;;;;;;;;;108273;1266;40399;-41
2023/07/15 14:01:13;;;;;;;3.90;2.40;;;;;;;;;;108284;1268;41958;-41
2023/07/15 14:03:51;;;;;;;4.20;2.50;;;;;;;;;;108246;1260;41316;-41
2023/07/15 14:06:25;;;;;;;3.90;2.50;;;;;;;;;;108260;1271;40052;-40
2023/07/15 14:09:00;;;;;;;4.00;2.70;;;;;;;;;;108307;1262;40385;-40
2023/07/15 14:11:34;;;;;;;4.20;2.40;;;;;;;;;;108190;1268;42971;-41
2023/07/15 14:14:08;;;;;;;3.90;2.40;;;;;;;;;;108260;1261;41023;-42
2023/07/15 14:16:43;;;;;;;4.80;2.80;;;;;;;;;;108135;1272;175310;-42
2023/07/15 14:19:17;;;;;;;4.00;2.60;;;;;;;;;;108091;1272;41355;-45
2023/07/15 14:21:51;;;;;;;4.20;2.60;;;;;;;;;;108259;1270;41768;-41
2023/07/15 14:24:42;;;;;;;3.80;2.40;;;;;;;;;;108263;1270;40884;-41
2023/07/15 14:27:16;;;;;;;4.10;2.40;;;;;;;;;;108300;1263;38702;-43
2023/07/15 14:29:50;;;;;;;4.10;2.60;;;;;;;;;;108271;1263;40344;-43
2023/07/15 14:32:24;;;;;;;4.40;2.50;;;;;;;;;;108298;1269;41915;-41
2023/07/15 14:34:59;;;;;;;3.90;2.60;;;;;;;;;;108218;1261;42272;-42
2023/07/15 14:37:33;;;;;;;3.60;2.30;;;;;;;;;;108277;1270;38792;-42
2023/07/15 14:40:10;;;;;;;4.20;2.50;;;;;;;;;;108254;1271;41208;-42
2023/07/15 14:42:44;;;;;;;3.50;2.20;;;;;;;;;;108285;1272;41694;-42
2023/07/15 14:45:19;;;;;;;4.30;2.60;;;;;;;;;;108231;1263;41020;-44
2023/07/15 14:47:54;;;;;;;3.60;2.30;;;;;;;;;;108297;1262;38842;-42
2023/07/15 14:50:28;;;;;;;3.60;2.30;;;;;;;;;;108334;1272;40357;-42
2023/07/15 14:53:06;;;;;;;4.00;2.50;;;;;;;;;;108306;1263;42026;-43
2023/07/15 14:55:41;;;;;;;3.90;2.60;;;;;;;;;;108227;1272;40970;-42
2023/07/15 14:58:16;;;;;;;3.40;2.40;;;;;;;;;;108257;1257;38959;-42
2023/07/15 15:00:50;;;;;;;3.80;2.50;;;;;;;;;;108244;1268;40353;-40
2023/07/15 15:03:24;;;;;;;3.90;2.50;;;;;;;;;;108279;1272;41811;-40
2023/07/15 15:05:59;;;;;;;4.30;2.50;;;;;;;;;;108272;1261;42329;-40
2023/07/15 15:08:33;;;;;;;3.90;2.30;;;;;;;;;;108189;1270;175340;-41
2023/07/15 15:11:09;;;;;;;4.20;2.70;;;;;;;;;;108266;1260;40079;-42
2023/07/15 15:13:45;;;;;;;4.10;2.50;;;;;;;;;;108271;1273;43279;-40
2023/07/15 15:16:20;;;;;;;3.90;2.30;;;;;;;;;;108234;1260;40865;-40
2023/07/15 15:18:55;;;;;;;3.70;2.40;;;;;;;;;;108260;1272;40394;-40